createdAt,value
2023-04-26T00:00:09.726Z,100723.06
2023-04-26T00:01:15.807Z,100724.09
2023-04-26T00:02:20.222Z,100723.28
2023-04-26T00:03:24.182Z,100718.50
2023-04-26T00:04:30.220Z,100725.78
2023-04-26T00:05:33.963Z,100723.91
2023-04-26T00:06:38.397Z,100720.75
2023-04-26T00:07:41.852Z,100728.88
2023-04-26T00:08:46.094Z,100724.50
2023-04-26T00:09:49.537Z,100726.19
2023-04-26T00:10:52.950Z,100720.13
2023-04-26T00:11:57.116Z,100724.06
2023-04-26T00:13:01.233Z,100723.22
2023-04-26T00:14:04.727Z,100727.34
2023-04-26T00:15:09.327Z,100725.00
2023-04-26T00:16:15.957Z,100720.00
2023-04-26T00:17:19.687Z,100723.91
2023-04-26T00:18:23.217Z,100727.22
2023-04-26T00:19:27.275Z,100722.19
2023-04-26T00:20:31.166Z,100725.09
2023-04-26T00:21:34.984Z,100722.97
2023-04-26T00:22:39.105Z,100726.72
2023-04-26T00:23:43.212Z,100712.72
2023-04-26T00:24:46.760Z,100718.34
2023-04-26T00:25:50.714Z,100722.72
2023-04-26T00:26:56.799Z,100717.50
2023-04-26T00:28:00.121Z,100718.34
2023-04-26T00:29:05.058Z,100719.19
2023-04-26T00:30:10.008Z,100713.97
2023-04-26T00:31:17.717Z,100715.44
2023-04-26T00:32:21.598Z,100713.97
2023-04-26T00:33:25.728Z,100710.22
2023-04-26T00:34:38.298Z,100710.00
2023-04-26T00:35:42.066Z,100706.50
2023-04-26T00:36:46.187Z,100701.28
2023-04-26T00:37:49.982Z,100711.25
2023-04-26T00:38:54.270Z,100700.63
2023-04-26T00:39:58.300Z,100698.75
2023-04-26T00:41:02.058Z,100704.81
2023-04-26T00:42:05.661Z,100700.44
2023-04-26T00:43:09.102Z,100700.03
2023-04-26T00:44:12.718Z,100700.25
2023-04-26T00:45:16.141Z,100694.19
2023-04-26T00:46:19.684Z,100691.66
2023-04-26T00:47:23.510Z,100697.06
2023-04-26T00:48:27.381Z,100694.59
2023-04-26T00:49:31.084Z,100704.16
2023-04-26T00:50:34.604Z,100692.69
2023-04-26T00:51:39.004Z,100695.81
2023-04-26T00:52:43.051Z,100694.13
2023-04-26T00:53:46.802Z,100690.13
2023-04-26T00:54:50.834Z,100696.56
2023-04-26T00:55:55.314Z,100688.84
2023-04-26T00:56:58.797Z,100684.06
2023-04-26T00:58:02.669Z,100694.47
2023-04-26T00:59:06.445Z,100695.47
2023-04-26T01:00:11.154Z,100685.69
2023-04-26T01:01:14.867Z,100693.63
2023-04-26T01:02:18.859Z,100674.03
2023-04-26T01:03:23.680Z,100685.91
2023-04-26T01:04:28.363Z,100686.09
2023-04-26T01:05:32.366Z,100690.25
2023-04-26T01:06:36.835Z,100680.94
2023-04-26T01:07:40.924Z,100688.41
2023-04-26T01:08:44.629Z,100680.75
2023-04-26T01:09:48.719Z,100677.38
2023-04-26T01:10:52.469Z,100676.97
2023-04-26T01:11:58.792Z,100678.41
2023-04-26T01:13:02.852Z,100676.53
2023-04-26T01:14:07.279Z,100680.75
2023-04-26T01:15:12.373Z,100672.81
2023-04-26T01:16:15.666Z,100664.88
2023-04-26T01:17:21.089Z,100672.38
2023-04-26T01:18:25.763Z,100661.94
2023-04-26T01:19:30.070Z,100670.69
2023-04-26T01:20:33.501Z,100674.84
2023-04-26T01:21:38.076Z,100669.78
2023-04-26T01:22:42.111Z,100658.53
2023-04-26T01:23:46.185Z,100657.50
2023-04-26T01:24:51.575Z,100651.06
2023-04-26T01:25:56.920Z,100652.72
2023-04-26T01:27:00.667Z,100646.88
2023-04-26T01:28:04.797Z,100640.19
2023-04-26T01:29:21.572Z,100641.84
2023-04-26T01:30:24.871Z,100639.72
2023-04-26T01:31:28.377Z,100632.47
2023-04-26T01:32:32.075Z,100638.88
2023-04-26T01:33:35.690Z,100631.00
2023-04-26T01:34:39.622Z,100633.88
2023-04-26T01:35:43.273Z,100630.53
2023-04-26T01:36:47.224Z,100631.53
2023-04-26T01:37:51.072Z,100625.53
2023-04-26T01:38:54.764Z,100632.78
2023-04-26T01:39:58.836Z,100625.88
2023-04-26T01:41:02.471Z,100631.28
2023-04-26T01:42:09.026Z,100623.19
2023-04-26T01:43:12.639Z,100623.16
2023-04-26T01:44:16.730Z,100617.16
2023-04-26T01:45:20.999Z,100620.22
2023-04-26T01:46:42.963Z,100610.16
2023-04-26T01:47:49.549Z,100615.75
2023-04-26T01:48:53.201Z,100610.53
2023-04-26T01:49:59.153Z,100605.31
2023-04-26T01:51:03.023Z,100610.47
2023-04-26T01:52:06.757Z,100603.97
2023-04-26T01:53:10.534Z,100605.81
2023-04-26T01:54:14.272Z,100610.03
2023-04-26T01:55:17.792Z,100606.28
2023-04-26T01:56:21.989Z,100595.50
2023-04-26T01:57:25.798Z,100603.38
2023-04-26T01:58:30.441Z,100595.09
2023-04-26T01:59:33.931Z,100592.00
2023-04-26T02:00:38.100Z,100598.06
2023-04-26T02:01:44.479Z,100595.75
2023-04-26T02:02:48.040Z,100593.06
2023-04-26T02:03:51.964Z,100594.69
2023-04-26T02:04:57.096Z,100587.00
2023-04-26T02:06:03.399Z,100591.38
2023-04-26T02:07:07.159Z,100595.53
2023-04-26T02:08:10.402Z,100590.97
2023-04-26T02:09:13.977Z,100585.56
2023-04-26T02:10:18.538Z,100583.88
2023-04-26T02:11:21.937Z,100580.16
2023-04-26T02:12:25.565Z,100583.53
2023-04-26T02:13:29.544Z,100579.16
2023-04-26T02:14:33.489Z,100574.56
2023-04-26T02:15:36.780Z,100574.75
2023-04-26T02:16:41.481Z,100575.41
2023-04-26T02:17:45.264Z,100577.47
2023-04-26T02:18:50.544Z,100574.25
2023-04-26T02:19:54.707Z,100570.63
2023-04-26T02:20:58.730Z,100575.72
2023-04-26T02:22:02.880Z,100568.66
2023-04-26T02:23:06.937Z,100568.38
2023-04-26T02:24:10.402Z,100566.72
2023-04-26T02:25:14.313Z,100554.88
2023-04-26T02:26:18.450Z,100564.31
2023-04-26T02:27:22.055Z,100562.41
2023-04-26T02:28:25.766Z,100562.63
2023-04-26T02:29:43.572Z,100560.28
2023-04-26T02:30:49.165Z,100562.25
2023-04-26T02:31:53.010Z,100563.47
2023-04-26T02:32:56.586Z,100559.13
2023-04-26T02:33:59.816Z,100564.13
2023-04-26T02:35:06.184Z,100565.16
2023-04-26T02:36:10.366Z,100566.81
2023-04-26T02:37:13.845Z,100563.72
2023-04-26T02:38:16.983Z,100565.06
2023-04-26T02:39:21.572Z,100565.91
2023-04-26T02:40:24.884Z,100564.66
2023-04-26T02:41:28.329Z,100564.31
2023-04-26T02:42:32.526Z,100563.91
2023-04-26T02:43:36.027Z,100567.91
2023-04-26T02:44:40.209Z,100569.56
2023-04-26T02:45:45.012Z,100562.31
2023-04-26T02:46:50.759Z,100562.31
2023-04-26T02:47:54.670Z,100562.75
2023-04-26T02:48:58.642Z,100568.63
2023-04-26T02:50:02.076Z,100554.47
2023-04-26T02:51:07.882Z,100562.00
2023-04-26T02:52:11.622Z,100563.69
2023-04-26T02:53:14.959Z,100559.97
2023-04-26T02:54:18.376Z,100556.84
2023-04-26T02:55:22.249Z,100559.81
2023-04-26T02:56:26.254Z,100553.03
2023-04-26T02:57:32.706Z,100545.56
2023-04-26T02:58:37.109Z,100556.00
2023-04-26T02:59:42.184Z,100549.34
2023-04-26T03:00:48.840Z,100540.66
2023-04-26T03:01:52.373Z,100542.16
2023-04-26T03:02:56.485Z,100548.41
2023-04-26T03:04:00.214Z,100548.22
2023-04-26T03:05:04.595Z,100546.31
2023-04-26T03:06:09.038Z,100542.25
2023-04-26T03:07:12.867Z,100547.00
2023-04-26T03:08:16.593Z,100545.81
2023-04-26T03:09:20.615Z,100542.59
2023-04-26T03:10:24.434Z,100546.31
2023-04-26T03:11:27.847Z,100540.03
2023-04-26T03:12:31.179Z,100540.41
2023-04-26T03:13:34.642Z,100545.19
2023-04-26T03:14:38.843Z,100538.47
2023-04-26T03:15:47.191Z,100545.44
2023-04-26T03:16:51.837Z,100544.44
2023-04-26T03:17:55.613Z,100537.66
2023-04-26T03:18:59.514Z,100535.72
2023-04-26T03:20:03.097Z,100538.44
2023-04-26T03:21:07.414Z,100534.88
2023-04-26T03:22:13.080Z,100542.13
2023-04-26T03:23:16.801Z,100539.09
2023-04-26T03:24:21.168Z,100541.38
2023-04-26T03:25:25.121Z,100541.88
2023-04-26T03:26:29.225Z,100545.66
2023-04-26T03:27:33.534Z,100536.16
2023-04-26T03:28:37.669Z,100538.00
2023-04-26T03:29:42.852Z,100539.88
2023-04-26T03:30:50.926Z,100534.47
2023-04-26T03:31:55.194Z,100542.66
2023-04-26T03:32:59.147Z,100547.03
2023-04-26T03:34:02.962Z,100542.06
2023-04-26T03:35:06.681Z,100541.50
2023-04-26T03:36:10.684Z,100549.84
2023-04-26T03:37:14.591Z,100534.13
2023-04-26T03:38:20.750Z,100541.47
2023-04-26T03:39:24.544Z,100552.31
2023-04-26T03:40:29.721Z,100547.16
2023-04-26T03:41:34.125Z,100547.66
2023-04-26T03:42:41.537Z,100546.25
2023-04-26T03:43:45.522Z,100548.09
2023-04-26T03:44:49.324Z,100537.47
2023-04-26T03:45:52.892Z,100540.84
2023-04-26T03:46:56.736Z,100542.50
2023-04-26T03:48:00.396Z,100545.22
2023-04-26T03:49:04.475Z,100544.19
2023-04-26T03:50:09.856Z,100548.00
2023-04-26T03:51:13.459Z,100540.06
2023-04-26T03:52:17.885Z,100547.78
2023-04-26T03:53:23.110Z,100541.34
2023-04-26T03:54:26.714Z,100545.06
2023-04-26T03:55:31.397Z,100550.09
2023-04-26T03:56:35.299Z,100553.44
2023-04-26T03:57:39.058Z,100553.44
2023-04-26T03:58:43.304Z,100558.84
2023-04-26T03:59:47.521Z,100553.81
2023-04-26T04:00:51.199Z,100555.09
2023-04-26T04:01:54.970Z,100555.34
2023-04-26T04:02:58.798Z,100561.78
2023-04-26T04:04:04.313Z,100559.72
2023-04-26T04:05:09.246Z,100557.69
2023-04-26T04:06:13.348Z,100556.06
2023-04-26T04:07:17.363Z,100550.66
2023-04-26T04:08:21.331Z,100550.66
2023-04-26T04:09:25.755Z,100554.81
2023-04-26T04:10:30.000Z,100547.38
2023-04-26T04:11:34.082Z,100556.13
2023-04-26T04:12:39.019Z,100549.66
2023-04-26T04:13:42.510Z,100556.56
2023-04-26T04:14:45.961Z,100561.56
2023-04-26T04:15:49.982Z,100554.28
2023-04-26T04:16:53.150Z,100547.84
2023-04-26T04:17:56.944Z,100551.84
2023-04-26T04:19:01.123Z,100555.78
2023-04-26T04:20:08.030Z,100550.16
2023-04-26T04:21:12.043Z,100556.22
2023-04-26T04:22:16.118Z,100544.63
2023-04-26T04:23:19.996Z,100544.63
2023-04-26T04:24:23.854Z,100553.38
2023-04-26T04:25:29.195Z,100548.41
2023-04-26T04:26:36.309Z,100541.75
2023-04-26T04:27:39.692Z,100538.00
2023-04-26T04:28:43.266Z,100543.41
2023-04-26T04:29:47.678Z,100547.81
2023-04-26T04:30:50.798Z,100545.03
2023-04-26T04:31:54.870Z,100542.16
2023-04-26T04:33:01.078Z,100547.16
2023-04-26T04:34:04.785Z,100539.25
2023-04-26T04:35:09.566Z,100539.88
2023-04-26T04:36:13.358Z,100534.28
2023-04-26T04:37:18.137Z,100543.03
2023-04-26T04:38:22.022Z,100533.44
2023-04-26T04:39:26.396Z,100533.91
2023-04-26T04:40:30.311Z,100538.06
2023-04-26T04:41:35.785Z,100529.28
2023-04-26T04:42:39.838Z,100526.41
2023-04-26T04:43:44.245Z,100528.06
2023-04-26T04:44:48.624Z,100531.81
2023-04-26T04:45:53.214Z,100526.81
2023-04-26T04:46:57.318Z,100527.84
2023-04-26T04:48:02.696Z,100528.88
2023-04-26T04:49:06.277Z,100526.81
2023-04-26T04:50:09.875Z,100519.53
2023-04-26T04:51:14.292Z,100523.28
2023-04-26T04:52:19.073Z,100526.81
2023-04-26T04:53:22.918Z,100524.72
2023-04-26T04:54:26.679Z,100525.56
2023-04-26T04:55:30.487Z,100516.59
2023-04-26T04:56:34.669Z,100521.84
2023-04-26T04:57:38.974Z,100532.47
2023-04-26T04:58:43.701Z,100522.25
2023-04-26T04:59:48.125Z,100537.47
2023-04-26T05:00:54.686Z,100534.75
2023-04-26T05:02:03.129Z,100530.38
2023-04-26T05:03:10.714Z,100530.19
2023-04-26T05:04:14.193Z,100538.50
2023-04-26T05:05:18.493Z,100538.50
2023-04-26T05:06:22.515Z,100536.44
2023-04-26T05:07:27.946Z,100538.09
2023-04-26T05:08:33.216Z,100545.56
2023-04-26T05:09:39.712Z,100540.16
2023-04-26T05:10:43.604Z,100549.78
2023-04-26T05:11:47.182Z,100553.50
2023-04-26T05:12:51.124Z,100551.00
2023-04-26T05:13:55.021Z,100548.09
2023-04-26T05:14:59.093Z,100555.38
2023-04-26T05:16:02.441Z,100547.91
2023-04-26T05:17:07.110Z,100553.50
2023-04-26T05:18:11.188Z,100550.59
2023-04-26T05:19:15.225Z,100548.94
2023-04-26T05:20:22.751Z,100548.09
2023-04-26T05:21:26.967Z,100555.00
2023-04-26T05:22:31.208Z,100549.34
2023-04-26T05:23:35.136Z,100551.00
2023-04-26T05:24:39.140Z,100558.91
2023-04-26T05:25:42.978Z,100548.09
2023-04-26T05:27:06.284Z,100552.66
2023-04-26T05:28:19.174Z,100547.25
2023-04-26T05:29:41.361Z,100548.44
2023-04-26T05:30:57.636Z,100552.84
2023-04-26T05:32:06.580Z,100553.84
2023-04-26T05:33:16.030Z,100558.44
2023-04-26T05:34:31.746Z,100557.19
2023-04-26T05:35:35.944Z,100560.94
2023-04-26T05:36:39.894Z,100558.03
2023-04-26T05:37:43.258Z,100557.19
2023-04-26T05:38:47.614Z,100569.06
2023-04-26T05:39:52.117Z,100554.88
2023-04-26T05:40:55.514Z,100557.19
2023-04-26T05:41:59.001Z,100560.94
2023-04-26T05:43:02.694Z,100565.06
2023-04-26T05:44:08.054Z,100552.78
2023-04-26T05:45:12.160Z,100552.56
2023-04-26T05:46:16.251Z,100546.59
2023-04-26T05:47:20.829Z,100543.00
2023-04-26T05:48:24.519Z,100554.84
2023-04-26T05:49:27.683Z,100549.00
2023-04-26T05:50:31.876Z,100550.03
2023-04-26T05:51:35.410Z,100553.75
2023-04-26T05:52:39.044Z,100558.78
2023-04-26T05:53:43.259Z,100562.13
2023-04-26T05:54:47.259Z,100559.66
2023-04-26T05:55:51.378Z,100561.72
2023-04-26T05:56:56.708Z,100556.50
2023-04-26T05:58:03.182Z,100557.97
2023-04-26T05:59:06.487Z,100558.81
2023-04-26T06:00:12.416Z,100554.88
2023-04-26T06:01:20.227Z,100561.97
2023-04-26T06:02:23.692Z,100558.63
2023-04-26T06:03:28.424Z,100554.66
2023-04-26T06:04:33.428Z,100555.47
2023-04-26T06:05:42.500Z,100552.97
2023-04-26T06:06:46.272Z,100561.69
2023-04-26T06:07:50.428Z,100558.28
2023-04-26T06:08:54.922Z,100564.97
2023-04-26T06:09:58.224Z,100551.06
2023-04-26T06:11:01.571Z,100564.56
2023-04-26T06:12:05.631Z,100564.13
2023-04-26T06:13:12.668Z,100552.06
2023-04-26T06:14:29.344Z,100566.91
2023-04-26T06:15:40.434Z,100562.53
2023-04-26T06:16:44.362Z,100562.06
2023-04-26T06:17:48.078Z,100568.31
2023-04-26T06:18:52.954Z,100558.72
2023-04-26T06:19:57.247Z,100567.69
2023-04-26T06:21:01.259Z,100569.31
2023-04-26T06:22:05.342Z,100571.88
2023-04-26T06:23:10.544Z,100565.28
2023-04-26T06:24:13.997Z,100572.72
2023-04-26T06:25:17.741Z,100573.63
2023-04-26T06:26:21.538Z,100574.50
2023-04-26T06:27:25.674Z,100568.47
2023-04-26T06:28:29.309Z,100569.84
2023-04-26T06:29:36.811Z,100572.34
2023-04-26T06:30:40.658Z,100570.69
2023-04-26T06:31:44.342Z,100570.22
2023-04-26T06:32:49.340Z,100569.38
2023-04-26T06:33:53.965Z,100573.63
2023-04-26T06:34:58.147Z,100574.91
2023-04-26T06:36:02.544Z,100571.00
2023-04-26T06:37:06.736Z,100574.19
2023-04-26T06:38:14.030Z,100581.03
2023-04-26T06:39:18.598Z,100580.25
2023-04-26T06:40:22.684Z,100575.94
2023-04-26T06:41:26.604Z,100578.44
2023-04-26T06:42:29.926Z,100572.38
2023-04-26T06:43:58.244Z,100580.50
2023-04-26T06:45:08.748Z,100578.69
2023-04-26T06:46:12.809Z,100590.19
2023-04-26T06:47:16.849Z,100584.81
2023-04-26T06:48:21.596Z,100585.28
2023-04-26T06:49:26.040Z,100589.66
2023-04-26T06:50:30.154Z,100591.63
2023-04-26T06:51:33.836Z,100594.16
2023-04-26T06:52:37.945Z,100595.03
2023-04-26T06:53:42.580Z,100593.38
2023-04-26T06:54:56.001Z,100586.09
2023-04-26T06:56:00.613Z,100588.25
2023-04-26T06:57:04.619Z,100592.19
2023-04-26T06:58:08.458Z,100591.81
2023-04-26T06:59:12.074Z,100589.34
2023-04-26T07:00:16.079Z,100594.97
2023-04-26T07:01:19.784Z,100587.06
2023-04-26T07:02:25.210Z,100590.63
2023-04-26T07:03:30.375Z,100586.25
2023-04-26T07:04:34.723Z,100590.00
2023-04-26T07:05:40.301Z,100588.97
2023-04-26T07:06:43.945Z,100592.28
2023-04-26T07:07:47.630Z,100590.22
2023-04-26T07:08:52.481Z,100598.56
2023-04-26T07:09:56.718Z,100586.88
2023-04-26T07:11:01.077Z,100593.16
2023-04-26T07:12:04.546Z,100592.53
2023-04-26T07:13:09.676Z,100589.00
2023-04-26T07:14:13.743Z,100592.78
2023-04-26T07:15:17.452Z,100585.28
2023-04-26T07:16:21.101Z,100589.47
2023-04-26T07:17:25.243Z,100594.06
2023-04-26T07:18:28.617Z,100593.28
2023-04-26T07:19:32.752Z,100582.44
2023-04-26T07:20:35.987Z,100589.94
2023-04-26T07:21:39.439Z,100591.59
2023-04-26T07:22:43.763Z,100587.88
2023-04-26T07:23:47.120Z,100585.78
2023-04-26T07:24:51.104Z,100588.50
2023-04-26T07:25:55.329Z,100583.88
2023-04-26T07:27:00.099Z,100583.69
2023-04-26T07:28:03.524Z,100588.91
2023-04-26T07:29:07.651Z,100589.13
2023-04-26T07:30:11.551Z,100592.25
2023-04-26T07:31:15.526Z,100586.41
2023-04-26T07:32:19.524Z,100593.91
2023-04-26T07:33:23.439Z,100594.97
2023-04-26T07:34:27.785Z,100604.13
2023-04-26T07:35:31.785Z,100594.53
2023-04-26T07:36:35.351Z,100595.16
2023-04-26T07:37:39.111Z,100603.50
2023-04-26T07:38:43.015Z,100601.22
2023-04-26T07:39:46.879Z,100600.78
2023-04-26T07:40:51.426Z,100584.94
2023-04-26T07:41:55.693Z,100589.91
2023-04-26T07:43:00.044Z,100593.88
2023-04-26T07:44:03.646Z,100597.81
2023-04-26T07:45:08.274Z,100596.13
2023-04-26T07:46:12.308Z,100595.88
2023-04-26T07:47:16.656Z,100584.81
2023-04-26T07:48:21.051Z,100588.38
2023-04-26T07:49:24.546Z,100591.72
2023-04-26T07:50:28.539Z,100593.63
2023-04-26T07:51:32.624Z,100583.34
2023-04-26T07:52:36.487Z,100594.84
2023-04-26T07:53:40.563Z,100590.88
2023-04-26T07:54:47.090Z,100600.66
2023-04-26T07:55:54.002Z,100603.97
2023-04-26T07:56:58.013Z,100601.47
2023-04-26T07:58:01.926Z,100604.75
2023-04-26T07:59:05.714Z,100601.63
2023-04-26T08:00:13.347Z,100604.31
2023-04-26T08:01:17.454Z,100607.22
2023-04-26T08:02:25.076Z,100600.25
2023-04-26T08:03:34.215Z,100600.78
2023-04-26T08:04:37.553Z,100609.56
2023-04-26T08:05:41.740Z,100608.72
2023-04-26T08:06:49.138Z,100608.50
2023-04-26T08:07:52.633Z,100611.84
2023-04-26T08:08:56.305Z,100616.66
2023-04-26T08:09:59.649Z,100617.94
2023-04-26T08:11:02.992Z,100614.75
2023-04-26T08:12:07.097Z,100611.28
2023-04-26T08:13:10.877Z,100616.72
2023-04-26T08:14:14.992Z,100610.81
2023-04-26T08:15:18.324Z,100606.59
2023-04-26T08:16:22.314Z,100599.94
2023-04-26T08:17:26.079Z,100597.84
2023-04-26T08:18:29.613Z,100606.59
2023-04-26T08:19:34.443Z,100602.97
2023-04-26T08:20:50.265Z,100595.94
2023-04-26T08:21:53.472Z,100598.31
2023-04-26T08:23:00.525Z,100597.59
2023-04-26T08:24:04.908Z,100596.09
2023-04-26T08:25:08.825Z,100593.16
2023-04-26T08:26:12.501Z,100591.69
2023-04-26T08:27:15.698Z,100586.88
2023-04-26T08:28:20.636Z,100593.31
2023-04-26T08:52:10.045Z,100585.16
2023-04-26T08:53:19.879Z,100580.19
2023-04-26T08:54:27.207Z,100586.25
2023-04-26T08:55:30.383Z,100582.94
2023-04-26T08:56:36.767Z,100572.66
2023-04-26T08:58:36.733Z,100575.88
2023-04-26T08:59:41.494Z,100573.84
2023-04-26T09:00:48.954Z,100567.03
2023-04-26T09:01:52.311Z,100575.94
2023-04-26T09:02:56.384Z,100574.19
2023-04-26T09:04:00.589Z,100564.88
2023-04-26T09:05:05.208Z,100576.75
2023-04-26T09:06:10.099Z,100566.41
2023-04-26T09:07:34.957Z,100563.03
2023-04-26T09:08:38.445Z,100567.59
2023-04-26T09:09:45.002Z,100569.22
2023-04-26T09:10:48.359Z,100569.16
2023-04-26T09:11:58.839Z,100566.91
2023-04-26T09:13:02.908Z,100566.47
2023-04-26T09:14:07.012Z,100569.38
2023-04-26T09:15:11.255Z,100562.94
2023-04-26T09:16:15.800Z,100563.44
2023-04-26T09:17:29.556Z,100561.50
2023-04-26T09:18:34.925Z,100566.34
2023-04-26T09:19:48.846Z,100568.13
2023-04-26T09:21:09.252Z,100578.09
2023-04-26T09:22:12.462Z,100576.69
2023-04-26T09:23:18.089Z,100572.34
2023-04-26T09:24:22.104Z,100568.72
2023-04-26T09:25:32.648Z,100566.31
2023-04-26T09:26:36.595Z,100561.00
2023-04-26T09:27:41.684Z,100558.03
2023-04-26T09:28:45.488Z,100560.16
2023-04-26T09:30:21.978Z,100565.13
2023-04-26T09:31:39.446Z,100564.78
2023-04-26T09:32:55.997Z,100569.84
2023-04-26T09:34:00.597Z,100569.47
2023-04-26T09:35:05.241Z,100569.31
2023-04-26T09:36:14.791Z,100571.88
2023-04-26T09:37:18.594Z,100563.25
2023-04-26T09:38:22.696Z,100568.06
2023-04-26T09:39:34.672Z,100574.50
2023-04-26T09:40:41.993Z,100569.47
2023-04-26T09:41:46.098Z,100572.88
2023-04-26T09:42:59.064Z,100573.38
2023-04-26T09:44:02.833Z,100576.75
2023-04-26T09:45:09.581Z,100579.28
2023-04-26T09:46:13.571Z,100576.31
2023-04-26T09:47:17.309Z,100578.50
2023-04-26T09:48:29.656Z,100567.63
2023-04-26T09:49:53.311Z,100577.56
2023-04-26T09:50:59.920Z,100574.81
2023-04-26T09:52:05.280Z,100564.34
2023-04-26T09:53:09.873Z,100565.94
2023-04-26T09:54:14.613Z,100557.28
2023-04-26T09:55:35.008Z,100563.31
2023-04-26T09:56:39.345Z,100561.09
2023-04-26T09:57:46.012Z,100559.72
2023-04-26T09:58:53.027Z,100562.53
2023-04-26T09:59:57.104Z,100556.09
2023-04-26T10:01:00.749Z,100559.50
2023-04-26T10:02:04.401Z,100556.19
2023-04-26T10:03:11.160Z,100556.59
2023-04-26T10:04:15.042Z,100566.50
2023-04-26T10:05:20.560Z,100563.69
2023-04-26T10:06:30.411Z,100563.69
2023-04-26T10:07:39.649Z,100555.53
2023-04-26T10:09:10.776Z,100561.47
2023-04-26T10:10:17.501Z,100572.38
2023-04-26T10:11:22.854Z,100568.75
2023-04-26T10:12:27.246Z,100570.91
2023-04-26T10:13:33.536Z,100567.06
2023-04-26T10:14:37.588Z,100563.47
2023-04-26T10:15:43.961Z,100554.34
2023-04-26T10:16:48.227Z,100552.06
2023-04-26T10:17:52.817Z,100566.16
2023-04-26T10:18:58.263Z,100560.81
2023-04-26T10:20:19.019Z,100562.94
2023-04-26T10:21:33.317Z,100559.53
2023-04-26T10:22:41.359Z,100564.50
2023-04-26T10:23:45.569Z,100556.72
2023-04-26T10:24:49.924Z,100555.78
2023-04-26T10:25:54.868Z,100560.16
2023-04-26T10:27:00.524Z,100561.19
2023-04-26T10:28:09.178Z,100563.47
2023-04-26T10:29:12.311Z,100562.50
2023-04-26T10:30:17.515Z,100555.44
2023-04-26T10:31:21.149Z,100558.50
2023-04-26T10:32:25.169Z,100557.63
2023-04-26T10:33:28.732Z,100551.06
2023-04-26T10:34:37.286Z,100553.66
2023-04-26T10:36:02.852Z,100540.94
2023-04-26T10:37:16.802Z,100561.53
2023-04-26T10:38:21.394Z,100546.50
2023-04-26T10:39:27.996Z,100548.13
2023-04-26T10:40:33.935Z,100553.44
2023-04-26T10:41:39.243Z,100549.97
2023-04-26T10:42:44.826Z,100554.00
2023-04-26T10:43:48.642Z,100547.75
2023-04-26T10:45:33.178Z,100558.53
2023-04-26T10:46:52.115Z,100544.34
2023-04-26T10:48:22.972Z,100556.56
2023-04-26T10:49:26.904Z,100564.09
2023-04-26T10:51:22.548Z,100559.88
2023-04-26T10:52:28.283Z,100556.47
2023-04-26T10:53:47.330Z,100559.47
2023-04-26T10:54:58.418Z,100554.16
2023-04-26T10:56:01.949Z,100542.34
2023-04-26T10:57:06.049Z,100554.25
2023-04-26T10:58:31.199Z,100548.00
2023-04-26T10:59:47.201Z,100544.63
2023-04-26T11:01:09.645Z,100548.94
2023-04-26T11:02:14.014Z,100551.50
2023-04-26T11:03:18.128Z,100553.03
2023-04-26T11:04:22.005Z,100555.50
2023-04-26T11:05:38.351Z,100553.66
2023-04-26T11:06:52.094Z,100552.22
2023-04-26T11:08:25.580Z,100553.44
2023-04-26T11:09:50.324Z,100548.94
2023-04-26T11:11:12.821Z,100547.69
2023-04-26T11:12:17.234Z,100543.13
2023-04-26T11:13:21.498Z,100544.78
2023-04-26T11:14:25.617Z,100548.78
2023-04-26T11:15:29.725Z,100543.81
2023-04-26T11:16:33.079Z,100549.28
2023-04-26T11:17:39.442Z,100546.88
2023-04-26T11:18:44.405Z,100547.66
2023-04-26T11:19:51.307Z,100539.09
2023-04-26T11:20:54.545Z,100542.78
2023-04-26T11:21:58.248Z,100548.06
2023-04-26T11:23:02.058Z,100543.50
2023-04-26T11:24:06.124Z,100549.59
2023-04-26T11:25:10.077Z,100540.44
2023-04-26T11:26:13.595Z,100551.25
2023-04-26T11:27:17.803Z,100542.91
2023-04-26T11:28:22.842Z,100545.34
2023-04-26T11:29:26.903Z,100547.81
2023-04-26T11:30:33.328Z,100543.16
2023-04-26T11:31:37.204Z,100546.44
2023-04-26T11:32:41.195Z,100544.03
2023-04-26T11:33:45.264Z,100542.91
2023-04-26T11:34:51.529Z,100543.22
2023-04-26T11:35:56.611Z,100537.94
2023-04-26T11:36:59.989Z,100536.94
2023-04-26T11:38:05.586Z,100535.25
2023-04-26T11:39:09.453Z,100540.13
2023-04-26T11:40:13.582Z,100542.41
2023-04-26T11:41:17.642Z,100530.66
2023-04-26T11:42:25.912Z,100534.06
2023-04-26T11:43:39.538Z,100536.16
2023-04-26T11:44:44.157Z,100534.31
2023-04-26T11:45:49.377Z,100540.19
2023-04-26T11:47:02.326Z,100543.16
2023-04-26T11:48:09.854Z,100534.13
2023-04-26T11:49:13.882Z,100533.72
2023-04-26T11:50:17.543Z,100523.13
2023-04-26T11:51:21.829Z,100526.91
2023-04-26T11:52:25.592Z,100530.41
2023-04-26T11:53:44.015Z,100532.78
2023-04-26T11:54:47.034Z,100534.72
2023-04-26T11:55:51.665Z,100523.72
2023-04-26T11:56:55.255Z,100518.88
2023-04-26T11:57:59.135Z,100523.59
2023-04-26T11:59:02.592Z,100525.78
2023-04-26T12:00:13.094Z,100522.28
2023-04-26T12:01:29.638Z,100518.28
2023-04-26T12:02:33.133Z,100520.22
2023-04-26T12:03:38.368Z,100522.59
2023-04-26T12:04:42.733Z,100513.72
2023-04-26T12:05:55.777Z,100519.72
2023-04-26T12:06:59.196Z,100520.75
2023-04-26T12:08:03.457Z,100511.97
2023-04-26T12:09:07.324Z,100512.81
2023-04-26T12:10:21.651Z,100506.94
2023-04-26T12:11:25.602Z,100510.53
2023-04-26T12:12:29.598Z,100516.91
2023-04-26T12:13:34.007Z,100512.88
2023-04-26T12:14:39.138Z,100521.41
2023-04-26T12:15:43.265Z,100510.09
2023-04-26T12:16:47.416Z,100517.44
2023-04-26T12:18:01.477Z,100517.16
2023-04-26T12:19:09.317Z,100513.53
2023-04-26T12:20:13.360Z,100512.38
2023-04-26T12:21:18.116Z,100510.44
2023-04-26T12:22:22.385Z,100514.13
2023-04-26T12:23:26.175Z,100501.09
2023-04-26T12:24:35.402Z,100516.59
2023-04-26T12:25:39.926Z,100500.41
2023-04-26T12:26:45.808Z,100508.19
2023-04-26T12:27:49.257Z,100508.28
2023-04-26T12:28:52.934Z,100512.38
2023-04-26T12:29:56.514Z,100500.34
2023-04-26T12:31:02.354Z,100495.84
2023-04-26T12:32:06.566Z,100497.41
2023-04-26T12:33:17.153Z,100497.06
2023-04-26T12:34:21.765Z,100484.78
2023-04-26T12:35:26.239Z,100497.69
2023-04-26T12:36:29.872Z,100493.28
2023-04-26T12:37:33.369Z,100484.81
2023-04-26T12:38:37.464Z,100488.56
2023-04-26T12:39:41.515Z,100495.72
2023-04-26T12:40:47.958Z,100494.91
2023-04-26T12:41:51.792Z,100487.28
2023-04-26T12:42:57.044Z,100494.66
2023-04-26T12:44:00.564Z,100483.16
2023-04-26T12:45:05.049Z,100490.97
2023-04-26T12:46:08.877Z,100495.94
2023-04-26T12:47:12.895Z,100491.50
2023-04-26T12:48:17.494Z,100482.06
2023-04-26T12:49:21.709Z,100485.81
2023-04-26T12:50:25.338Z,100482.47
2023-04-26T12:51:30.035Z,100486.59
2023-04-26T12:52:33.446Z,100486.06